Woodland, California
Current Conditions -  °F | °C
As of 6:53 PM on Wednesday 22 Oct 2014 (Local Time) from KSMF Reporting Station
Broken Clouds Broken Clouds  
Wind Chill: 70°   Ceiling: 25000
Heat Index: 70°   Visibility: 10mi
Dew Point: 43°   Wind: 5mph
Humidity: 38%   Direction: 150°SSE
Pressure: 29.99"   Gusts: NA
Location:  38.68°N, 121.77°W
Report Text: KSMF 230153Z 15004KT 10SM SCT180 BKN250 21/06 A2999 RMK AO2 SLP153 T02110061
Loading
Personal Weather Stations






























Interactive Weather Map
Tropical Storm Tracking
New forecast layout! Learn more

10-Day Weather Forecast

Advertisements
Track Severe Weather on mobile